sensor_id;sensor_type;location;lat;lon;timestamp;P1;durP1;ratioP1;P2;durP2;ratioP2
41631;SDS011;37452;51.938;4.624;2023-06-19T00:00:26;2.50;;;1.17;;
41631;SDS011;37452;51.938;4.624;2023-06-19T00:02:52;2.17;;;1.00;;
41631;SDS011;37452;51.938;4.624;2023-06-19T00:05:17;2.30;;;0.95;;
41631;SDS011;37452;51.938;4.624;2023-06-19T00:07:43;2.67;;;1.30;;
41631;SDS011;37452;51.938;4.624;2023-06-19T00:10:08;3.58;;;1.13;;
41631;SDS011;37452;51.938;4.624;2023-06-19T00:12:33;2.35;;;1.13;;
41631;SDS011;37452;51.938;4.624;2023-06-19T00:14:59;1.98;;;0.82;;
41631;SDS011;37452;51.938;4.624;2023-06-19T00:17:24;1.63;;;0.80;;
41631;SDS011;37452;51.938;4.624;2023-06-19T00:19:51;2.53;;;1.08;;
41631;SDS011;37452;51.938;4.624;2023-06-19T00:22:18;1.67;;;0.90;;
41631;SDS011;37452;51.938;4.624;2023-06-19T00:24:43;4.05;;;1.13;;
41631;SDS011;37452;51.938;4.624;2023-06-19T00:27:08;1.63;;;0.70;;
41631;SDS011;37452;51.938;4.624;2023-06-19T00:29:34;2.75;;;1.00;;
41631;SDS011;37452;51.938;4.624;2023-06-19T00:31:59;2.65;;;1.20;;
41631;SDS011;37452;51.938;4.624;2023-06-19T00:34:24;2.30;;;1.05;;
41631;SDS011;37452;51.938;4.624;2023-06-19T00:36:53;5.07;;;0.85;;
41631;SDS011;37452;51.938;4.624;2023-06-19T00:39:22;2.15;;;1.10;;
41631;SDS011;37452;51.938;4.624;2023-06-19T00:41:49;4.53;;;1.45;;
41631;SDS011;37452;51.938;4.624;2023-06-19T00:44:16;4.55;;;1.55;;
41631;SDS011;37452;51.938;4.624;2023-06-19T00:46:42;5.45;;;1.67;;
41631;SDS011;37452;51.938;4.624;2023-06-19T00:49:07;3.45;;;1.70;;
41631;SDS011;37452;51.938;4.624;2023-06-19T00:51:33;3.10;;;1.75;;
41631;SDS011;37452;51.938;4.624;2023-06-19T00:53:59;3.33;;;1.75;;
41631;SDS011;37452;51.938;4.624;2023-06-19T00:56:25;3.97;;;2.13;;
41631;SDS011;37452;51.938;4.624;2023-06-19T00:58:51;3.13;;;2.00;;
41631;SDS011;37452;51.938;4.624;2023-06-19T01:01:19;3.58;;;2.05;;
41631;SDS011;37452;51.938;4.624;2023-06-19T01:03:46;5.45;;;2.83;;
41631;SDS011;37452;51.938;4.624;2023-06-19T01:06:15;5.07;;;3.70;;
41631;SDS011;37452;51.938;4.624;2023-06-19T01:08:57;5.85;;;3.38;;
41631;SDS011;37452;51.938;4.624;2023-06-19T01:11:28;4.65;;;2.65;;
41631;SDS011;37452;51.938;4.624;2023-06-19T01:14:00;5.85;;;2.88;;
41631;SDS011;37452;51.938;4.624;2023-06-19T01:16:33;4.85;;;2.85;;
41631;SDS011;37452;51.938;4.624;2023-06-19T01:18:59;4.85;;;2.80;;
41631;SDS011;37452;51.938;4.624;2023-06-19T01:21:24;10.82;;;3.10;;
41631;SDS011;37452;51.938;4.624;2023-06-19T01:23:50;5.97;;;3.65;;
41631;SDS011;37452;51.938;4.624;2023-06-19T01:26:16;5.97;;;3.70;;
41631;SDS011;37452;51.938;4.624;2023-06-19T01:28:42;6.50;;;4.13;;
41631;SDS011;37452;51.938;4.624;2023-06-19T01:31:11;6.35;;;3.20;;
41631;SDS011;37452;51.938;4.624;2023-06-19T01:33:39;10.93;;;4.53;;
41631;SDS011;37452;51.938;4.624;2023-06-19T01:36:07;6.47;;;4.15;;
41631;SDS011;37452;51.938;4.624;2023-06-19T01:38:33;6.32;;;3.47;;
41631;SDS011;37452;51.938;4.624;2023-06-19T01:41:00;5.80;;;4.05;;
41631;SDS011;37452;51.938;4.624;2023-06-19T01:43:27;4.80;;;3.42;;
41631;SDS011;37452;51.938;4.624;2023-06-19T01:45:55;5.20;;;3.60;;
41631;SDS011;37452;51.938;4.624;2023-06-19T01:48:20;8.90;;;4.05;;
41631;SDS011;37452;51.938;4.624;2023-06-19T01:50:46;6.70;;;4.30;;
41631;SDS011;37452;51.938;4.624;2023-06-19T01:53:12;6.57;;;3.33;;
41631;SDS011;37452;51.938;4.624;2023-06-19T01:55:38;6.60;;;3.95;;
41631;SDS011;37452;51.938;4.624;2023-06-19T01:58:04;8.60;;;3.97;;
41631;SDS011;37452;51.938;4.624;2023-06-19T02:00:29;5.70;;;3.92;;
41631;SDS011;37452;51.938;4.624;2023-06-19T02:02:55;6.40;;;3.85;;
41631;SDS011;37452;51.938;4.624;2023-06-19T02:05:21;6.07;;;4.03;;
41631;SDS011;37452;51.938;4.624;2023-06-19T02:07:46;5.93;;;3.38;;
41631;SDS011;37452;51.938;4.624;2023-06-19T02:10:11;5.65;;;3.45;;
41631;SDS011;37452;51.938;4.624;2023-06-19T02:12:37;6.68;;;4.03;;
41631;SDS011;37452;51.938;4.624;2023-06-19T02:15:02;6.63;;;4.20;;
41631;SDS011;37452;51.938;4.624;2023-06-19T02:17:27;8.02;;;4.53;;
41631;SDS011;37452;51.938;4.624;2023-06-19T02:19:53;8.90;;;5.20;;
41631;SDS011;37452;51.938;4.624;2023-06-19T02:22:18;10.50;;;5.55;;
41631;SDS011;37452;51.938;4.624;2023-06-19T02:24:44;10.98;;;6.30;;
41631;SDS011;37452;51.938;4.624;2023-06-19T02:27:09;12.10;;;6.75;;
41631;SDS011;37452;51.938;4.624;2023-06-19T02:29:35;14.02;;;7.70;;
41631;SDS011;37452;51.938;4.624;2023-06-19T02:32:01;14.65;;;8.68;;
41631;SDS011;37452;51.938;4.624;2023-06-19T02:34:26;15.75;;;8.40;;
41631;SDS011;37452;51.938;4.624;2023-06-19T02:36:51;19.42;;;9.80;;
41631;SDS011;37452;51.938;4.624;2023-06-19T02:39:17;16.33;;;9.43;;
41631;SDS011;37452;51.938;4.624;2023-06-19T02:41:43;17.90;;;10.27;;
41631;SDS011;37452;51.938;4.624;2023-06-19T02:44:11;16.15;;;10.05;;
41631;SDS011;37452;51.938;4.624;2023-06-19T02:46:37;18.85;;;10.20;;
41631;SDS011;37452;51.938;4.624;2023-06-19T02:49:02;20.08;;;10.60;;
41631;SDS011;37452;51.938;4.624;2023-06-19T02:51:27;15.75;;;10.30;;
41631;SDS011;37452;51.938;4.624;2023-06-19T02:53:52;14.63;;;9.02;;
41631;SDS011;37452;51.938;4.624;2023-06-19T02:56:18;17.20;;;10.68;;
41631;SDS011;37452;51.938;4.624;2023-06-19T02:58:43;16.58;;;9.88;;
41631;SDS011;37452;51.938;4.624;2023-06-19T03:01:09;14.70;;;9.40;;
41631;SDS011;37452;51.938;4.624;2023-06-19T03:03:34;15.77;;;8.60;;
41631;SDS011;37452;51.938;4.624;2023-06-19T03:06:06;16.77;;;9.10;;
41631;SDS011;37452;51.938;4.624;2023-06-19T03:08:35;13.10;;;8.13;;
41631;SDS011;37452;51.938;4.624;2023-06-19T03:11:01;14.43;;;8.77;;
41631;SDS011;37452;51.938;4.624;2023-06-19T03:13:48;15.68;;;8.13;;
41631;SDS011;37452;51.938;4.624;2023-06-19T03:16:15;16.80;;;8.48;;
41631;SDS011;37452;51.938;4.624;2023-06-19T03:18:41;11.90;;;7.43;;
41631;SDS011;37452;51.938;4.624;2023-06-19T03:21:07;12.57;;;6.72;;
41631;SDS011;37452;51.938;4.624;2023-06-19T03:23:33;11.02;;;7.10;;
41631;SDS011;37452;51.938;4.624;2023-06-19T03:25:58;11.18;;;7.03;;
41631;SDS011;37452;51.938;4.624;2023-06-19T03:28:23;12.02;;;7.18;;
41631;SDS011;37452;51.938;4.624;2023-06-19T03:30:49;10.30;;;6.80;;
41631;SDS011;37452;51.938;4.624;2023-06-19T03:33:15;11.38;;;6.20;;
41631;SDS011;37452;51.938;4.624;2023-06-19T03:35:40;11.85;;;5.75;;
41631;SDS011;37452;51.938;4.624;2023-06-19T03:38:05;10.60;;;6.55;;
41631;SDS011;37452;51.938;4.624;2023-06-19T03:40:31;11.00;;;6.45;;
41631;SDS011;37452;51.938;4.624;2023-06-19T03:42:56;12.18;;;6.82;;
41631;SDS011;37452;51.938;4.624;2023-06-19T03:45:21;10.70;;;6.18;;
41631;SDS011;37452;51.938;4.624;2023-06-19T03:47:47;10.77;;;6.25;;
41631;SDS011;37452;51.938;4.624;2023-06-19T03:50:12;8.65;;;5.47;;
41631;SDS011;37452;51.938;4.624;2023-06-19T03:52:37;10.32;;;5.45;;
41631;SDS011;37452;51.938;4.624;2023-06-19T03:55:03;7.47;;;4.60;;
41631;SDS011;37452;51.938;4.624;2023-06-19T03:57:29;7.53;;;4.07;;
41631;SDS011;37452;51.938;4.624;2023-06-19T03:59:54;8.60;;;3.63;;
41631;SDS011;37452;51.938;4.624;2023-06-19T04:02:20;7.13;;;3.60;;
41631;SDS011;37452;51.938;4.624;2023-06-19T04:04:46;10.77;;;3.92;;
41631;SDS011;37452;51.938;4.624;2023-06-19T04:07:11;7.28;;;3.30;;
41631;SDS011;37452;51.938;4.624;2023-06-19T04:09:36;5.07;;;3.05;;
41631;SDS011;37452;51.938;4.624;2023-06-19T04:12:02;6.03;;;3.17;;
41631;SDS011;37452;51.938;4.624;2023-06-19T04:14:27;6.32;;;3.60;;
41631;SDS011;37452;51.938;4.624;2023-06-19T04:16:53;7.18;;;3.08;;
41631;SDS011;37452;51.938;4.624;2023-06-19T04:19:18;5.78;;;2.88;;
41631;SDS011;37452;51.938;4.624;2023-06-19T04:21:43;6.68;;;2.60;;
41631;SDS011;37452;51.938;4.624;2023-06-19T04:24:08;5.57;;;3.20;;
41631;SDS011;37452;51.938;4.624;2023-06-19T04:26:34;4.88;;;3.35;;
41631;SDS011;37452;51.938;4.624;2023-06-19T04:29:01;10.80;;;4.97;;
41631;SDS011;37452;51.938;4.624;2023-06-19T04:31:26;7.50;;;4.43;;
41631;SDS011;37452;51.938;4.624;2023-06-19T04:33:53;9.13;;;5.68;;
41631;SDS011;37452;51.938;4.624;2023-06-19T04:36:21;10.25;;;5.43;;
41631;SDS011;37452;51.938;4.624;2023-06-19T04:38:47;11.43;;;5.78;;
41631;SDS011;37452;51.938;4.624;2023-06-19T04:41:12;11.90;;;6.10;;
41631;SDS011;37452;51.938;4.624;2023-06-19T04:43:37;10.65;;;6.57;;
41631;SDS011;37452;51.938;4.624;2023-06-19T04:46:06;12.40;;;6.53;;
41631;SDS011;37452;51.938;4.624;2023-06-19T04:48:31;11.27;;;6.45;;
41631;SDS011;37452;51.938;4.624;2023-06-19T04:50:57;10.50;;;6.57;;
41631;SDS011;37452;51.938;4.624;2023-06-19T04:53:22;8.30;;;6.05;;
41631;SDS011;37452;51.938;4.624;2023-06-19T04:55:47;9.10;;;6.05;;
41631;SDS011;37452;51.938;4.624;2023-06-19T04:58:14;10.13;;;5.85;;
41631;SDS011;37452;51.938;4.624;2023-06-19T05:00:40;9.80;;;6.57;;
41631;SDS011;37452;51.938;4.624;2023-06-19T05:03:05;10.45;;;5.80;;
41631;SDS011;37452;51.938;4.624;2023-06-19T05:05:30;12.32;;;6.20;;
41631;SDS011;37452;51.938;4.624;2023-06-19T05:07:56;11.02;;;6.57;;
41631;SDS011;37452;51.938;4.624;2023-06-19T05:10:21;12.63;;;5.75;;
41631;SDS011;37452;51.938;4.624;2023-06-19T05:12:46;8.48;;;5.45;;
41631;SDS011;37452;51.938;4.624;2023-06-19T05:15:12;10.07;;;5.55;;
41631;SDS011;37452;51.938;4.624;2023-06-19T05:17:37;7.95;;;5.20;;
41631;SDS011;37452;51.938;4.624;2023-06-19T05:20:04;8.07;;;5.65;;
41631;SDS011;37452;51.938;4.624;2023-06-19T05:22:32;12.70;;;6.72;;
41631;SDS011;37452;51.938;4.624;2023-06-19T05:24:59;14.00;;;7.18;;
41631;SDS011;37452;51.938;4.624;2023-06-19T05:27:24;8.73;;;6.30;;
41631;SDS011;37452;51.938;4.624;2023-06-19T05:29:49;8.45;;;6.40;;
41631;SDS011;37452;51.938;4.624;2023-06-19T05:32:15;14.57;;;8.13;;
41631;SDS011;37452;51.938;4.624;2023-06-19T05:34:40;16.55;;;8.00;;
41631;SDS011;37452;51.938;4.624;2023-06-19T05:37:05;14.38;;;8.38;;
41631;SDS011;37452;51.938;4.624;2023-06-19T05:39:31;14.90;;;8.85;;
41631;SDS011;37452;51.938;4.624;2023-06-19T05:41:56;14.65;;;8.32;;
41631;SDS011;37452;51.938;4.624;2023-06-19T05:44:21;12.00;;;8.40;;
41631;SDS011;37452;51.938;4.624;2023-06-19T05:46:46;10.98;;;7.10;;
41631;SDS011;37452;51.938;4.624;2023-06-19T05:49:12;11.55;;;7.60;;
41631;SDS011;37452;51.938;4.624;2023-06-19T05:51:37;9.38;;;6.47;;
41631;SDS011;37452;51.938;4.624;2023-06-19T05:54:03;11.00;;;5.97;;
41631;SDS011;37452;51.938;4.624;2023-06-19T05:56:31;11.88;;;7.22;;
41631;SDS011;37452;51.938;4.624;2023-06-19T05:58:58;11.85;;;7.28;;
41631;SDS011;37452;51.938;4.624;2023-06-19T06:01:23;11.55;;;7.65;;
41631;SDS011;37452;51.938;4.624;2023-06-19T06:03:49;10.95;;;6.47;;
41631;SDS011;37452;51.938;4.624;2023-06-19T06:06:14;11.40;;;7.95;;
41631;SDS011;37452;51.938;4.624;2023-06-19T06:08:40;12.13;;;8.13;;
41631;SDS011;37452;51.938;4.624;2023-06-19T06:11:05;11.48;;;7.85;;
41631;SDS011;37452;51.938;4.624;2023-06-19T06:13:30;12.57;;;7.90;;
41631;SDS011;37452;51.938;4.624;2023-06-19T06:15:56;10.73;;;7.60;;
41631;SDS011;37452;51.938;4.624;2023-06-19T06:18:21;11.77;;;7.50;;
41631;SDS011;37452;51.938;4.624;2023-06-19T06:20:47;14.13;;;7.70;;
41631;SDS011;37452;51.938;4.624;2023-06-19T06:23:12;15.98;;;7.53;;
41631;SDS011;37452;51.938;4.624;2023-06-19T06:25:37;12.10;;;7.68;;
41631;SDS011;37452;51.938;4.624;2023-06-19T06:28:03;17.67;;;7.93;;
41631;SDS011;37452;51.938;4.624;2023-06-19T06:30:28;16.73;;;7.80;;
41631;SDS011;37452;51.938;4.624;2023-06-19T06:32:54;12.10;;;7.03;;
41631;SDS011;37452;51.938;4.624;2023-06-19T06:35:19;12.07;;;7.18;;
41631;SDS011;37452;51.938;4.624;2023-06-19T06:37:44;17.15;;;7.85;;
41631;SDS011;37452;51.938;4.624;2023-06-19T06:40:11;12.73;;;7.97;;
41631;SDS011;37452;51.938;4.624;2023-06-19T06:42:37;15.07;;;9.00;;
41631;SDS011;37452;51.938;4.624;2023-06-19T06:45:04;16.25;;;9.57;;
41631;SDS011;37452;51.938;4.624;2023-06-19T06:47:30;19.15;;;11.10;;
41631;SDS011;37452;51.938;4.624;2023-06-19T06:49:55;20.23;;;12.07;;
41631;SDS011;37452;51.938;4.624;2023-06-19T06:52:21;19.77;;;11.70;;
41631;SDS011;37452;51.938;4.624;2023-06-19T06:54:46;21.15;;;11.60;;
41631;SDS011;37452;51.938;4.624;2023-06-19T06:57:11;19.73;;;12.68;;
41631;SDS011;37452;51.938;4.624;2023-06-19T06:59:37;27.23;;;12.63;;
41631;SDS011;37452;51.938;4.624;2023-06-19T07:02:02;22.05;;;11.18;;
41631;SDS011;37452;51.938;4.624;2023-06-19T07:04:28;25.58;;;13.73;;
41631;SDS011;37452;51.938;4.624;2023-06-19T07:06:53;20.75;;;13.07;;
41631;SDS011;37452;51.938;4.624;2023-06-19T07:09:19;23.42;;;14.07;;
41631;SDS011;37452;51.938;4.624;2023-06-19T07:11:46;24.88;;;14.45;;
41631;SDS011;37452;51.938;4.624;2023-06-19T07:14:11;24.77;;;14.82;;
41631;SDS011;37452;51.938;4.624;2023-06-19T07:16:36;19.10;;;13.25;;
41631;SDS011;37452;51.938;4.624;2023-06-19T07:19:02;22.25;;;12.90;;
41631;SDS011;37452;51.938;4.624;2023-06-19T07:21:27;22.52;;;11.77;;
41631;SDS011;37452;51.938;4.624;2023-06-19T07:23:54;21.27;;;13.55;;
41631;SDS011;37452;51.938;4.624;2023-06-19T07:26:20;21.85;;;13.93;;
41631;SDS011;37452;51.938;4.624;2023-06-19T07:28:45;27.25;;;15.63;;
41631;SDS011;37452;51.938;4.624;2023-06-19T07:31:11;23.02;;;14.23;;
41631;SDS011;37452;51.938;4.624;2023-06-19T07:33:36;28.33;;;15.45;;
41631;SDS011;37452;51.938;4.624;2023-06-19T07:36:01;22.90;;;14.98;;
41631;SDS011;37452;51.938;4.624;2023-06-19T07:38:30;23.33;;;14.48;;
41631;SDS011;37452;51.938;4.624;2023-06-19T07:40:55;23.42;;;13.40;;
41631;SDS011;37452;51.938;4.624;2023-06-19T07:43:20;22.65;;;13.65;;
41631;SDS011;37452;51.938;4.624;2023-06-19T07:45:47;24.80;;;13.63;;
41631;SDS011;37452;51.938;4.624;2023-06-19T07:48:13;23.60;;;13.85;;
41631;SDS011;37452;51.938;4.624;2023-06-19T07:50:38;22.63;;;13.18;;
41631;SDS011;37452;51.938;4.624;2023-06-19T07:53:03;23.20;;;13.32;;
41631;SDS011;37452;51.938;4.624;2023-06-19T07:55:29;20.15;;;12.60;;
41631;SDS011;37452;51.938;4.624;2023-06-19T07:57:54;20.02;;;12.88;;
41631;SDS011;37452;51.938;4.624;2023-06-19T08:00:21;28.30;;;13.73;;
41631;SDS011;37452;51.938;4.624;2023-06-19T08:02:47;22.58;;;12.60;;
41631;SDS011;37452;51.938;4.624;2023-06-19T08:05:13;19.83;;;11.43;;
41631;SDS011;37452;51.938;4.624;2023-06-19T08:07:38;24.33;;;12.15;;
41631;SDS011;37452;51.938;4.624;2023-06-19T08:10:03;21.60;;;13.52;;
41631;SDS011;37452;51.938;4.624;2023-06-19T08:12:30;20.08;;;12.75;;
41631;SDS011;37452;51.938;4.624;2023-06-19T08:14:55;21.15;;;12.10;;
41631;SDS011;37452;51.938;4.624;2023-06-19T08:17:21;24.45;;;13.77;;
41631;SDS011;37452;51.938;4.624;2023-06-19T08:19:46;19.48;;;12.88;;
41631;SDS011;37452;51.938;4.624;2023-06-19T08:22:12;23.75;;;12.07;;
41631;SDS011;37452;51.938;4.624;2023-06-19T08:24:37;22.15;;;12.65;;
41631;SDS011;37452;51.938;4.624;2023-06-19T08:27:05;22.60;;;13.80;;
41631;SDS011;37452;51.938;4.624;2023-06-19T08:29:30;22.90;;;13.60;;
41631;SDS011;37452;51.938;4.624;2023-06-19T08:31:55;25.55;;;14.25;;
41631;SDS011;37452;51.938;4.624;2023-06-19T08:34:21;22.05;;;13.68;;
41631;SDS011;37452;51.938;4.624;2023-06-19T08:36:46;26.25;;;13.30;;
41631;SDS011;37452;51.938;4.624;2023-06-19T08:39:11;23.90;;;14.65;;
41631;SDS011;37452;51.938;4.624;2023-06-19T08:41:37;23.73;;;14.30;;
41631;SDS011;37452;51.938;4.624;2023-06-19T08:44:03;21.95;;;14.02;;
41631;SDS011;37452;51.938;4.624;2023-06-19T08:46:30;23.13;;;14.38;;
41631;SDS011;37452;51.938;4.624;2023-06-19T08:48:55;21.33;;;12.82;;
41631;SDS011;37452;51.938;4.624;2023-06-19T08:51:21;22.65;;;13.63;;
41631;SDS011;37452;51.938;4.624;2023-06-19T08:53:47;23.95;;;14.23;;
41631;SDS011;37452;51.938;4.624;2023-06-19T08:56:20;21.52;;;13.43;;
41631;SDS011;37452;51.938;4.624;2023-06-19T08:58:45;22.35;;;12.98;;
41631;SDS011;37452;51.938;4.624;2023-06-19T09:01:11;24.65;;;12.90;;
41631;SDS011;37452;51.938;4.624;2023-06-19T09:03:36;21.08;;;13.85;;
41631;SDS011;37452;51.938;4.624;2023-06-19T09:06:07;24.58;;;14.48;;
41631;SDS011;37452;51.938;4.624;2023-06-19T09:08:33;23.98;;;15.48;;
41631;SDS011;37452;51.938;4.624;2023-06-19T09:11:00;21.98;;;13.45;;
41631;SDS011;37452;51.938;4.624;2023-06-19T09:13:27;23.35;;;13.95;;
41631;SDS011;37452;51.938;4.624;2023-06-19T09:16:12;25.58;;;16.13;;
41631;SDS011;37452;51.938;4.624;2023-06-19T09:18:44;23.50;;;15.18;;
41631;SDS011;37452;51.938;4.624;2023-06-19T09:21:20;27.10;;;15.35;;
41631;SDS011;37452;51.938;4.624;2023-06-19T09:23:48;29.63;;;16.58;;
41631;SDS011;37452;51.938;4.624;2023-06-19T09:26:16;24.80;;;13.98;;
41631;SDS011;37452;51.938;4.624;2023-06-19T09:28:44;20.13;;;13.88;;
41631;SDS011;37452;51.938;4.624;2023-06-19T09:31:09;23.85;;;14.15;;
41631;SDS011;37452;51.938;4.624;2023-06-19T09:33:35;22.73;;;15.27;;
41631;SDS011;37452;51.938;4.624;2023-06-19T09:36:01;29.35;;;15.68;;
41631;SDS011;37452;51.938;4.624;2023-06-19T09:38:29;22.17;;;14.25;;
41631;SDS011;37452;51.938;4.624;2023-06-19T09:40:56;27.67;;;14.80;;
41631;SDS011;37452;51.938;4.624;2023-06-19T09:43:25;23.90;;;14.52;;
41631;SDS011;37452;51.938;4.624;2023-06-19T09:45:55;21.95;;;13.52;;
41631;SDS011;37452;51.938;4.624;2023-06-19T09:48:25;22.75;;;13.30;;
41631;SDS011;37452;51.938;4.624;2023-06-19T09:50:54;21.08;;;14.13;;
41631;SDS011;37452;51.938;4.624;2023-06-19T09:53:25;26.02;;;13.52;;
41631;SDS011;37452;51.938;4.624;2023-06-19T09:55:51;22.48;;;13.35;;
41631;SDS011;37452;51.938;4.624;2023-06-19T09:58:17;17.10;;;10.18;;
41631;SDS011;37452;51.938;4.624;2023-06-19T10:00:45;18.55;;;11.05;;
41631;SDS011;37452;51.938;4.624;2023-06-19T10:03:12;20.52;;;11.82;;
41631;SDS011;37452;51.938;4.624;2023-06-19T10:05:38;17.63;;;10.95;;
41631;SDS011;37452;51.938;4.624;2023-06-19T10:08:04;16.30;;;11.25;;
41631;SDS011;37452;51.938;4.624;2023-06-19T10:10:30;16.83;;;11.18;;
41631;SDS011;37452;51.938;4.624;2023-06-19T10:12:59;15.43;;;8.68;;
41631;SDS011;37452;51.938;4.624;2023-06-19T10:15:39;15.90;;;10.65;;
41631;SDS011;37452;51.938;4.624;2023-06-19T10:18:06;18.65;;;11.40;;
41631;SDS011;37452;51.938;4.624;2023-06-19T10:20:32;14.80;;;10.43;;
41631;SDS011;37452;51.938;4.624;2023-06-19T10:23:06;15.93;;;9.98;;
41631;SDS011;37452;51.938;4.624;2023-06-19T10:25:36;17.08;;;10.48;;
41631;SDS011;37452;51.938;4.624;2023-06-19T10:28:04;16.08;;;10.02;;
41631;SDS011;37452;51.938;4.624;2023-06-19T10:30:40;14.23;;;9.13;;
41631;SDS011;37452;51.938;4.624;2023-06-19T10:33:06;12.85;;;8.70;;
41631;SDS011;37452;51.938;4.624;2023-06-19T10:35:37;14.98;;;9.60;;
41631;SDS011;37452;51.938;4.624;2023-06-19T10:38:09;15.68;;;9.07;;
41631;SDS011;37452;51.938;4.624;2023-06-19T10:40:38;14.55;;;8.38;;
41631;SDS011;37452;51.938;4.624;2023-06-19T10:43:04;13.27;;;8.43;;
41631;SDS011;37452;51.938;4.624;2023-06-19T10:45:29;11.88;;;7.75;;
41631;SDS011;37452;51.938;4.624;2023-06-19T10:47:55;12.68;;;8.25;;
41631;SDS011;37452;51.938;4.624;2023-06-19T10:50:20;12.65;;;8.48;;
41631;SDS011;37452;51.938;4.624;2023-06-19T10:52:47;12.23;;;8.82;;
41631;SDS011;37452;51.938;4.624;2023-06-19T10:55:14;13.75;;;8.80;;
41631;SDS011;37452;51.938;4.624;2023-06-19T10:57:40;14.35;;;8.15;;
41631;SDS011;37452;51.938;4.624;2023-06-19T11:00:09;11.27;;;7.75;;
41631;SDS011;37452;51.938;4.624;2023-06-19T11:02:40;12.68;;;8.30;;
41631;SDS011;37452;51.938;4.624;2023-06-19T11:05:08;13.52;;;9.20;;
41631;SDS011;37452;51.938;4.624;2023-06-19T11:07:34;13.70;;;8.43;;
41631;SDS011;37452;51.938;4.624;2023-06-19T11:10:00;12.90;;;9.70;;
41631;SDS011;37452;51.938;4.624;2023-06-19T11:12:25;13.43;;;8.45;;
41631;SDS011;37452;51.938;4.624;2023-06-19T11:14:50;12.75;;;8.35;;
41631;SDS011;37452;51.938;4.624;2023-06-19T11:17:16;11.40;;;7.47;;
41631;SDS011;37452;51.938;4.624;2023-06-19T11:19:45;15.13;;;8.60;;
41631;SDS011;37452;51.938;4.624;2023-06-19T11:22:11;12.80;;;8.85;;
41631;SDS011;37452;51.938;4.624;2023-06-19T11:24:36;13.30;;;8.48;;
41631;SDS011;37452;51.938;4.624;2023-06-19T11:27:13;11.88;;;8.35;;
41631;SDS011;37452;51.938;4.624;2023-06-19T11:29:42;11.87;;;7.93;;
41631;SDS011;37452;51.938;4.624;2023-06-19T11:32:09;10.40;;;7.57;;
41631;SDS011;37452;51.938;4.624;2023-06-19T11:34:38;13.07;;;8.50;;
41631;SDS011;37452;51.938;4.624;2023-06-19T11:37:16;12.73;;;8.30;;
41631;SDS011;37452;51.938;4.624;2023-06-19T11:39:44;14.57;;;8.27;;
41631;SDS011;37452;51.938;4.624;2023-06-19T11:42:10;12.27;;;8.52;;
41631;SDS011;37452;51.938;4.624;2023-06-19T11:44:35;14.45;;;8.35;;
41631;SDS011;37452;51.938;4.624;2023-06-19T11:47:18;12.05;;;8.65;;
41631;SDS011;37452;51.938;4.624;2023-06-19T11:49:43;13.13;;;8.95;;
41631;SDS011;37452;51.938;4.624;2023-06-19T11:52:12;10.85;;;7.38;;
41631;SDS011;37452;51.938;4.624;2023-06-19T11:54:38;11.88;;;7.70;;
41631;SDS011;37452;51.938;4.624;2023-06-19T11:57:03;11.95;;;6.72;;
41631;SDS011;37452;51.938;4.624;2023-06-19T11:59:29;10.80;;;7.32;;
41631;SDS011;37452;51.938;4.624;2023-06-19T12:01:55;11.23;;;7.43;;
41631;SDS011;37452;51.938;4.624;2023-06-19T12:04:23;11.25;;;7.72;;
41631;SDS011;37452;51.938;4.624;2023-06-19T12:06:48;14.18;;;7.32;;
41631;SDS011;37452;51.938;4.624;2023-06-19T12:09:14;10.35;;;6.15;;
41631;SDS011;37452;51.938;4.624;2023-06-19T12:11:39;10.88;;;7.30;;
41631;SDS011;37452;51.938;4.624;2023-06-19T12:14:04;9.52;;;5.93;;
41631;SDS011;37452;51.938;4.624;2023-06-19T12:16:29;9.30;;;5.65;;
41631;SDS011;37452;51.938;4.624;2023-06-19T12:18:55;8.82;;;6.00;;
41631;SDS011;37452;51.938;4.624;2023-06-19T12:21:20;9.48;;;6.30;;
41631;SDS011;37452;51.938;4.624;2023-06-19T12:23:46;8.80;;;5.78;;
41631;SDS011;37452;51.938;4.624;2023-06-19T12:26:11;11.25;;;6.82;;
41631;SDS011;37452;51.938;4.624;2023-06-19T12:28:36;11.35;;;6.68;;
41631;SDS011;37452;51.938;4.624;2023-06-19T12:31:01;10.77;;;5.75;;
41631;SDS011;37452;51.938;4.624;2023-06-19T12:33:28;11.38;;;5.85;;
41631;SDS011;37452;51.938;4.624;2023-06-19T12:35:58;10.10;;;6.72;;
41631;SDS011;37452;51.938;4.624;2023-06-19T12:38:23;10.30;;;5.70;;
41631;SDS011;37452;51.938;4.624;2023-06-19T12:40:48;11.63;;;6.38;;
41631;SDS011;37452;51.938;4.624;2023-06-19T12:43:14;9.98;;;6.55;;
41631;SDS011;37452;51.938;4.624;2023-06-19T12:45:39;7.82;;;5.45;;
41631;SDS011;37452;51.938;4.624;2023-06-19T12:48:06;9.13;;;5.57;;
41631;SDS011;37452;51.938;4.624;2023-06-19T12:50:31;9.57;;;6.15;;
41631;SDS011;37452;51.938;4.624;2023-06-19T12:52:57;8.15;;;4.65;;
41631;SDS011;37452;51.938;4.624;2023-06-19T12:55:22;9.02;;;5.50;;
41631;SDS011;37452;51.938;4.624;2023-06-19T12:57:47;8.07;;;5.20;;
41631;SDS011;37452;51.938;4.624;2023-06-19T13:00:13;8.02;;;5.45;;
41631;SDS011;37452;51.938;4.624;2023-06-19T13:02:39;10.27;;;4.50;;
41631;SDS011;37452;51.938;4.624;2023-06-19T13:05:06;8.35;;;4.80;;
41631;SDS011;37452;51.938;4.624;2023-06-19T13:07:31;8.57;;;5.35;;
41631;SDS011;37452;51.938;4.624;2023-06-19T13:09:57;8.43;;;5.15;;
41631;SDS011;37452;51.938;4.624;2023-06-19T13:12:23;7.13;;;4.38;;
41631;SDS011;37452;51.938;4.624;2023-06-19T13:14:48;8.07;;;4.35;;
41631;SDS011;37452;51.938;4.624;2023-06-19T13:17:14;11.65;;;4.63;;
41631;SDS011;37452;51.938;4.624;2023-06-19T13:19:39;9.77;;;5.82;;
41631;SDS011;37452;51.938;4.624;2023-06-19T13:22:04;8.70;;;5.15;;
41631;SDS011;37452;51.938;4.624;2023-06-19T13:24:30;8.23;;;4.85;;
41631;SDS011;37452;51.938;4.624;2023-06-19T13:26:55;7.40;;;5.38;;
41631;SDS011;37452;51.938;4.624;2023-06-19T13:29:20;10.52;;;5.13;;
41631;SDS011;37452;51.938;4.624;2023-06-19T13:31:46;9.55;;;4.85;;
41631;SDS011;37452;51.938;4.624;2023-06-19T13:34:11;8.32;;;4.07;;
41631;SDS011;37452;51.938;4.624;2023-06-19T13:36:37;7.47;;;4.68;;
41631;SDS011;37452;51.938;4.624;2023-06-19T13:39:03;8.85;;;5.05;;
41631;SDS011;37452;51.938;4.624;2023-06-19T13:41:29;9.30;;;4.70;;
41631;SDS011;37452;51.938;4.624;2023-06-19T13:43:57;6.80;;;4.85;;
41631;SDS011;37452;51.938;4.624;2023-06-19T13:46:23;6.85;;;4.75;;
41631;SDS011;37452;51.938;4.624;2023-06-19T13:48:48;8.32;;;5.57;;
41631;SDS011;37452;51.938;4.624;2023-06-19T13:51:16;8.60;;;5.03;;
41631;SDS011;37452;51.938;4.624;2023-06-19T13:53:43;8.98;;;4.93;;
41631;SDS011;37452;51.938;4.624;2023-06-19T13:56:09;8.07;;;4.60;;
41631;SDS011;37452;51.938;4.624;2023-06-19T13:58:34;8.00;;;4.30;;
41631;SDS011;37452;51.938;4.624;2023-06-19T14:01:00;7.10;;;4.70;;
41631;SDS011;37452;51.938;4.624;2023-06-19T14:03:25;10.20;;;5.13;;
41631;SDS011;37452;51.938;4.624;2023-06-19T14:05:50;8.60;;;5.00;;
41631;SDS011;37452;51.938;4.624;2023-06-19T14:08:16;10.02;;;5.70;;
41631;SDS011;37452;51.938;4.624;2023-06-19T14:10:41;8.20;;;5.07;;
41631;SDS011;37452;51.938;4.624;2023-06-19T14:13:06;11.75;;;4.95;;
41631;SDS011;37452;51.938;4.624;2023-06-19T14:15:33;7.68;;;4.82;;
41631;SDS011;37452;51.938;4.624;2023-06-19T14:17:58;12.32;;;5.10;;
41631;SDS011;37452;51.938;4.624;2023-06-19T14:20:24;10.05;;;4.85;;
41631;SDS011;37452;51.938;4.624;2023-06-19T14:22:49;7.22;;;4.38;;
41631;SDS011;37452;51.938;4.624;2023-06-19T14:25:14;7.60;;;4.05;;
41631;SDS011;37452;51.938;4.624;2023-06-19T14:27:40;6.25;;;3.83;;
41631;SDS011;37452;51.938;4.624;2023-06-19T14:30:05;6.65;;;4.20;;